sensor_id;sensor_type;location;lat;lon;timestamp;pressure;altitude;pressure_sealevel;temperature;humidity
64192;BME280;50497;50.720;-2.084;2023-02-21T00:02:11;100056.63;;;8.66;100.00
64192;BME280;50497;50.720;-2.084;2023-02-21T00:04:56;100057.66;;;8.63;100.00
64192;BME280;50497;50.720;-2.084;2023-02-21T00:07:45;100045.66;;;8.72;100.00
64192;BME280;50497;50.720;-2.084;2023-02-21T00:10:29;100044.06;;;8.68;100.00
64192;BME280;50497;50.720;-2.084;2023-02-21T00:13:16;100035.31;;;8.66;100.00
64192;BME280;50497;50.720;-2.084;2023-02-21T00:16:04;100043.06;;;8.71;100.00
64192;BME280;50497;50.720;-2.084;2023-02-21T00:18:51;100041.34;;;8.69;100.00
64192;BME280;50497;50.720;-2.084;2023-02-21T00:21:35;100038.03;;;8.64;100.00
64192;BME280;50497;50.720;-2.084;2023-02-21T00:24:19;100050.22;;;8.70;100.00
64192;BME280;50497;50.720;-2.084;2023-02-21T00:27:04;100052.88;;;8.70;100.00
64192;BME280;50497;50.720;-2.084;2023-02-21T00:29:49;100068.00;;;8.69;100.00
64192;BME280;50497;50.720;-2.084;2023-02-21T00:32:37;100062.50;;;8.73;100.00
64192;BME280;50497;50.720;-2.084;2023-02-21T00:35:28;100065.41;;;8.68;100.00
64192;BME280;50497;50.720;-2.084;2023-02-21T00:38:12;100061.41;;;8.59;100.00
64192;BME280;50497;50.720;-2.084;2023-02-21T00:41:00;100059.94;;;8.54;100.00
64192;BME280;50497;50.720;-2.084;2023-02-21T00:43:48;100047.31;;;8.57;100.00
64192;BME280;50497;50.720;-2.084;2023-02-21T00:46:34;100042.38;;;8.67;100.00
64192;BME280;50497;50.720;-2.084;2023-02-21T00:49:25;100030.34;;;8.76;100.00
64192;BME280;50497;50.720;-2.084;2023-02-21T00:52:13;100038.22;;;8.79;100.00
64192;BME280;50497;50.720;-2.084;2023-02-21T00:54:59;100026.69;;;8.78;100.00
64192;BME280;50497;50.720;-2.084;2023-02-21T00:57:47;100023.22;;;8.76;100.00
64192;BME280;50497;50.720;-2.084;2023-02-21T01:00:38;100024.88;;;8.79;100.00
64192;BME280;50497;50.720;-2.084;2023-02-21T01:03:22;100018.13;;;8.72;100.00
64192;BME280;50497;50.720;-2.084;2023-02-21T01:06:12;100003.78;;;8.74;100.00
64192;BME280;50497;50.720;-2.084;2023-02-21T01:09:02;100001.94;;;8.75;100.00
64192;BME280;50497;50.720;-2.084;2023-02-21T01:11:52;99992.00;;;8.78;100.00
64192;BME280;50497;50.720;-2.084;2023-02-21T01:14:43;99989.09;;;8.83;100.00
64192;BME280;50497;50.720;-2.084;2023-02-21T01:17:27;99975.75;;;8.83;100.00
64192;BME280;50497;50.720;-2.084;2023-02-21T01:20:18;99965.16;;;8.81;100.00
64192;BME280;50497;50.720;-2.084;2023-02-21T01:23:09;99973.88;;;8.85;100.00
64192;BME280;50497;50.720;-2.084;2023-02-21T01:26:00;99964.22;;;8.82;100.00
64192;BME280;50497;50.720;-2.084;2023-02-21T01:28:47;99973.56;;;8.74;100.00
64192;BME280;50497;50.720;-2.084;2023-02-21T01:31:36;99960.25;;;8.74;100.00
64192;BME280;50497;50.720;-2.084;2023-02-21T01:34:23;99960.84;;;8.79;100.00
64192;BME280;50497;50.720;-2.084;2023-02-21T01:37:13;99954.03;;;8.73;100.00
64192;BME280;50497;50.720;-2.084;2023-02-21T01:40:01;99948.00;;;8.69;100.00
64192;BME280;50497;50.720;-2.084;2023-02-21T01:42:46;99947.53;;;8.61;100.00
64192;BME280;50497;50.720;-2.084;2023-02-21T01:45:42;99938.69;;;8.61;100.00
64192;BME280;50497;50.720;-2.084;2023-02-21T01:48:30;99938.13;;;8.54;100.00
64192;BME280;50497;50.720;-2.084;2023-02-21T01:51:24;99925.13;;;8.48;100.00
64192;BME280;50497;50.720;-2.084;2023-02-21T01:54:14;99937.50;;;8.49;100.00
64192;BME280;50497;50.720;-2.084;2023-02-21T01:57:10;99937.94;;;8.40;100.00
64192;BME280;50497;50.720;-2.084;2023-02-21T01:59:56;99942.28;;;8.42;100.00
64192;BME280;50497;50.720;-2.084;2023-02-21T02:03:02;99937.81;;;8.43;100.00
64192;BME280;50497;50.720;-2.084;2023-02-21T02:06:14;99930.44;;;8.48;100.00
64192;BME280;50497;50.720;-2.084;2023-02-21T02:09:20;99925.81;;;8.51;100.00
64192;BME280;50497;50.720;-2.084;2023-02-21T02:12:52;99923.88;;;8.55;100.00
64192;BME280;50497;50.720;-2.084;2023-02-21T02:15:45;99923.00;;;8.55;100.00
64192;BME280;50497;50.720;-2.084;2023-02-21T02:27:15;99894.56;;;8.55;100.00
64192;BME280;50497;50.720;-2.084;2023-02-21T02:44:37;99864.09;;;8.59;100.00
64192;BME280;50497;50.720;-2.084;2023-02-21T02:47:14;99857.03;;;8.58;100.00
64192;BME280;50497;50.720;-2.084;2023-02-21T02:49:44;99856.59;;;8.50;100.00
64192;BME280;50497;50.720;-2.084;2023-02-21T02:52:26;99853.94;;;8.50;100.00
64192;BME280;50497;50.720;-2.084;2023-02-21T02:57:58;99840.25;;;8.56;100.00
64192;BME280;50497;50.720;-2.084;2023-02-21T03:00:39;99832.63;;;8.50;100.00
64192;BME280;50497;50.720;-2.084;2023-02-21T03:03:20;99825.38;;;8.52;100.00
64192;BME280;50497;50.720;-2.084;2023-02-21T03:06:16;99815.25;;;8.59;100.00
64192;BME280;50497;50.720;-2.084;2023-02-21T03:09:16;99803.81;;;8.57;100.00
64192;BME280;50497;50.720;-2.084;2023-02-21T03:11:55;99802.00;;;8.57;100.00
64192;BME280;50497;50.720;-2.084;2023-02-21T03:14:42;99795.97;;;8.54;100.00
64192;BME280;50497;50.720;-2.084;2023-02-21T03:17:25;99793.56;;;8.49;100.00
64192;BME280;50497;50.720;-2.084;2023-02-21T03:19:58;99786.34;;;8.51;100.00
64192;BME280;50497;50.720;-2.084;2023-02-21T03:22:32;99793.22;;;8.38;100.00
64192;BME280;50497;50.720;-2.084;2023-02-21T03:25:04;99787.91;;;8.38;100.00
64192;BME280;50497;50.720;-2.084;2023-02-21T03:27:34;99790.72;;;8.35;100.00
64192;BME280;50497;50.720;-2.084;2023-02-21T03:30:10;99786.56;;;8.46;100.00
64192;BME280;50497;50.720;-2.084;2023-02-21T03:32:44;99774.81;;;8.50;100.00
64192;BME280;50497;50.720;-2.084;2023-02-21T03:35:39;99770.66;;;8.45;100.00
64192;BME280;50497;50.720;-2.084;2023-02-21T03:38:09;99763.91;;;8.38;100.00
64192;BME280;50497;50.720;-2.084;2023-02-21T03:40:38;99766.91;;;8.49;100.00
64192;BME280;50497;50.720;-2.084;2023-02-21T03:43:11;99765.31;;;8.45;100.00
64192;BME280;50497;50.720;-2.084;2023-02-21T03:45:43;99761.00;;;8.42;100.00
64192;BME280;50497;50.720;-2.084;2023-02-21T03:48:15;99756.22;;;8.49;100.00
64192;BME280;50497;50.720;-2.084;2023-02-21T03:50:53;99759.66;;;8.51;100.00
64192;BME280;50497;50.720;-2.084;2023-02-21T03:53:29;99746.94;;;8.56;100.00
64192;BME280;50497;50.720;-2.084;2023-02-21T03:55:59;99748.00;;;8.54;100.00
64192;BME280;50497;50.720;-2.084;2023-02-21T03:58:30;99743.84;;;8.48;100.00
64192;BME280;50497;50.720;-2.084;2023-02-21T04:01:01;99741.97;;;8.50;100.00
64192;BME280;50497;50.720;-2.084;2023-02-21T04:03:39;99744.97;;;8.44;100.00
64192;BME280;50497;50.720;-2.084;2023-02-21T04:06:05;99727.84;;;8.48;100.00
64192;BME280;50497;50.720;-2.084;2023-02-21T04:08:36;99726.16;;;8.47;100.00
64192;BME280;50497;50.720;-2.084;2023-02-21T04:11:04;99720.13;;;8.43;100.00
64192;BME280;50497;50.720;-2.084;2023-02-21T04:13:34;99720.66;;;8.32;100.00
64192;BME280;50497;50.720;-2.084;2023-02-21T04:16:13;99723.31;;;8.32;100.00
64192;BME280;50497;50.720;-2.084;2023-02-21T04:18:41;99714.88;;;8.24;100.00
64192;BME280;50497;50.720;-2.084;2023-02-21T04:21:20;99714.72;;;8.27;100.00
64192;BME280;50497;50.720;-2.084;2023-02-21T04:23:48;99718.31;;;8.26;100.00
64192;BME280;50497;50.720;-2.084;2023-02-21T04:26:18;99706.41;;;8.33;100.00
64192;BME280;50497;50.720;-2.084;2023-02-21T04:28:47;99711.28;;;8.25;100.00
64192;BME280;50497;50.720;-2.084;2023-02-21T04:31:18;99714.56;;;8.30;100.00
64192;BME280;50497;50.720;-2.084;2023-02-21T04:33:46;99708.63;;;8.25;100.00
64192;BME280;50497;50.720;-2.084;2023-02-21T04:36:19;99710.03;;;8.15;100.00
64192;BME280;50497;50.720;-2.084;2023-02-21T04:38:45;99713.50;;;8.17;100.00
64192;BME280;50497;50.720;-2.084;2023-02-21T04:41:19;99719.16;;;8.11;100.00
64192;BME280;50497;50.720;-2.084;2023-02-21T04:43:52;99717.72;;;8.21;100.00
64192;BME280;50497;50.720;-2.084;2023-02-21T04:46:21;99725.88;;;8.18;100.00
64192;BME280;50497;50.720;-2.084;2023-02-21T04:48:50;99717.25;;;8.13;100.00
64192;BME280;50497;50.720;-2.084;2023-02-21T04:51:22;99724.50;;;8.11;100.00
64192;BME280;50497;50.720;-2.084;2023-02-21T04:53:49;99716.41;;;8.12;100.00
64192;BME280;50497;50.720;-2.084;2023-02-21T04:56:18;99705.69;;;8.14;100.00
64192;BME280;50497;50.720;-2.084;2023-02-21T04:58:49;99711.63;;;8.19;100.00
64192;BME280;50497;50.720;-2.084;2023-02-21T05:01:20;99710.59;;;8.22;100.00
64192;BME280;50497;50.720;-2.084;2023-02-21T05:03:50;99717.38;;;8.27;100.00
64192;BME280;50497;50.720;-2.084;2023-02-21T05:06:24;99714.59;;;8.13;100.00
64192;BME280;50497;50.720;-2.084;2023-02-21T05:08:50;99710.03;;;8.15;100.00
64192;BME280;50497;50.720;-2.084;2023-02-21T05:11:22;99720.53;;;8.02;100.00
64192;BME280;50497;50.720;-2.084;2023-02-21T05:13:58;99717.09;;;8.16;100.00
64192;BME280;50497;50.720;-2.084;2023-02-21T05:16:33;99727.38;;;8.06;100.00
64192;BME280;50497;50.720;-2.084;2023-02-21T05:19:05;99713.50;;;8.17;100.00
64192;BME280;50497;50.720;-2.084;2023-02-21T05:21:37;99706.44;;;8.16;100.00
64192;BME280;50497;50.720;-2.084;2023-02-21T05:24:16;99711.78;;;8.16;100.00
64192;BME280;50497;50.720;-2.084;2023-02-21T05:26:47;99714.50;;;7.99;100.00
64192;BME280;50497;50.720;-2.084;2023-02-21T05:29:20;99716.72;;;8.06;100.00
64192;BME280;50497;50.720;-2.084;2023-02-21T05:31:57;99691.22;;;8.02;100.00
64192;BME280;50497;50.720;-2.084;2023-02-21T05:34:29;99708.06;;;8.03;100.00
64192;BME280;50497;50.720;-2.084;2023-02-21T05:37:03;99698.16;;;8.05;100.00
64192;BME280;50497;50.720;-2.084;2023-02-21T05:39:37;99690.47;;;8.16;100.00
64192;BME280;50497;50.720;-2.084;2023-02-21T05:42:07;100206.25;;;8.22;100.00
64192;BME280;50497;50.720;-2.084;2023-02-21T05:44:45;100229.63;;;8.15;100.00
64192;BME280;50497;50.720;-2.084;2023-02-21T05:47:12;100221.50;;;8.18;100.00
64192;BME280;50497;50.720;-2.084;2023-02-21T05:49:46;100217.84;;;8.21;100.00
64192;BME280;50497;50.720;-2.084;2023-02-21T05:52:17;100226.81;;;8.18;100.00
64192;BME280;50497;50.720;-2.084;2023-02-21T05:54:50;100225.75;;;8.22;100.00
64192;BME280;50497;50.720;-2.084;2023-02-21T05:57:27;100235.13;;;8.12;100.00
64192;BME280;50497;50.720;-2.084;2023-02-21T05:59:52;100225.84;;;8.21;100.00
64192;BME280;50497;50.720;-2.084;2023-02-21T06:02:22;100228.19;;;8.08;100.00
64192;BME280;50497;50.720;-2.084;2023-02-21T06:04:58;100224.72;;;8.06;100.00
64192;BME280;50497;50.720;-2.084;2023-02-21T06:07:35;100224.00;;;8.02;100.00
64192;BME280;50497;50.720;-2.084;2023-02-21T06:10:04;100233.00;;;8.00;100.00
64192;BME280;50497;50.720;-2.084;2023-02-21T06:12:39;100229.59;;;7.96;100.00
64192;BME280;50497;50.720;-2.084;2023-02-21T06:15:09;100232.94;;;7.81;100.00
64192;BME280;50497;50.720;-2.084;2023-02-21T06:17:44;100226.22;;;7.92;100.00
64192;BME280;50497;50.720;-2.084;2023-02-21T06:20:14;100223.56;;;7.92;100.00
64192;BME280;50497;50.720;-2.084;2023-02-21T06:22:46;100233.69;;;7.84;100.00
64192;BME280;50497;50.720;-2.084;2023-02-21T06:25:17;100233.94;;;7.78;100.00
64192;BME280;50497;50.720;-2.084;2023-02-21T06:27:51;100233.69;;;7.84;100.00
64192;BME280;50497;50.720;-2.084;2023-02-21T06:30:24;100235.88;;;7.74;100.00
64192;BME280;50497;50.720;-2.084;2023-02-21T06:32:59;100239.41;;;7.75;100.00
64192;BME280;50497;50.720;-2.084;2023-02-21T06:35:35;100233.41;;;7.90;100.00
64192;BME280;50497;50.720;-2.084;2023-02-21T06:38:07;100237.72;;;7.93;100.00
64192;BME280;50497;50.720;-2.084;2023-02-21T06:40:40;100240.94;;;7.81;100.00
64192;BME280;50497;50.720;-2.084;2023-02-21T06:43:09;100240.06;;;7.80;100.00
64192;BME280;50497;50.720;-2.084;2023-02-21T06:45:39;100228.69;;;7.76;100.00
64192;BME280;50497;50.720;-2.084;2023-02-21T06:48:12;100233.94;;;7.78;100.00
64192;BME280;50497;50.720;-2.084;2023-02-21T06:50:41;100219.63;;;7.81;100.00
64192;BME280;50497;50.720;-2.084;2023-02-21T06:53:08;100219.19;;;7.71;100.00
64192;BME280;50497;50.720;-2.084;2023-02-21T06:55:43;100207.56;;;7.72;100.00
64192;BME280;50497;50.720;-2.084;2023-02-21T06:58:19;100208.09;;;7.80;100.00
64192;BME280;50497;50.720;-2.084;2023-02-21T07:00:45;100211.97;;;7.73;100.00
64192;BME280;50497;50.720;-2.084;2023-02-21T07:03:11;100209.56;;;7.67;100.00
64192;BME280;50497;50.720;-2.084;2023-02-21T07:05:36;100211.97;;;7.73;100.00
64192;BME280;50497;50.720;-2.084;2023-02-21T07:08:07;100208.53;;;7.71;100.00
64192;BME280;50497;50.720;-2.084;2023-02-21T07:10:49;100200.47;;;7.72;100.00
64192;BME280;50497;50.720;-2.084;2023-02-21T07:13:26;100206.06;;;7.66;100.00
64192;BME280;50497;50.720;-2.084;2023-02-21T07:16:02;100217.19;;;7.55;100.00
64192;BME280;50497;50.720;-2.084;2023-02-21T07:18:40;100218.50;;;7.66;100.00
64192;BME280;50497;50.720;-2.084;2023-02-21T07:21:40;100218.09;;;7.54;100.00
64192;BME280;50497;50.720;-2.084;2023-02-21T07:24:26;100221.50;;;7.58;100.00
64192;BME280;50497;50.720;-2.084;2023-02-21T07:26:59;100220.38;;;7.64;100.00
64192;BME280;50497;50.720;-2.084;2023-02-21T07:29:47;100229.94;;;7.68;100.00
64192;BME280;50497;50.720;-2.084;2023-02-21T07:32:25;100223.97;;;7.63;100.00
64192;BME280;50497;50.720;-2.084;2023-02-21T07:34:51;100235.13;;;7.50;100.00
64192;BME280;50497;50.720;-2.084;2023-02-21T07:37:28;100223.13;;;7.62;100.00
64192;BME280;50497;50.720;-2.084;2023-02-21T07:40:27;100235.34;;;7.66;100.00
64192;BME280;50497;50.720;-2.084;2023-02-21T07:43:09;100236.66;;;7.76;100.00
64192;BME280;50497;50.720;-2.084;2023-02-21T07:45:57;100237.16;;;7.66;100.00
64192;BME280;50497;50.720;-2.084;2023-02-21T07:48:32;100246.13;;;7.63;100.00
64192;BME280;50497;50.720;-2.084;2023-02-21T07:51:15;100236.06;;;7.70;100.00
64192;BME280;50497;50.720;-2.084;2023-02-21T07:53:51;100242.88;;;7.77;100.00
64192;BME280;50497;50.720;-2.084;2023-02-21T07:56:26;100228.44;;;7.62;100.00
64192;BME280;50497;50.720;-2.084;2023-02-21T07:59:14;100241.81;;;7.61;100.00
64192;BME280;50497;50.720;-2.084;2023-02-21T08:01:58;100244.47;;;7.61;100.00
64192;BME280;50497;50.720;-2.084;2023-02-21T08:04:28;100232.75;;;7.65;100.00
64192;BME280;50497;50.720;-2.084;2023-02-21T08:07:05;100237.16;;;7.66;100.00
64192;BME280;50497;50.720;-2.084;2023-02-21T08:09:47;100227.97;;;7.52;100.00
64192;BME280;50497;50.720;-2.084;2023-02-21T08:15:09;100224.81;;;7.63;100.00
64192;BME280;50497;50.720;-2.084;2023-02-21T08:21:01;100204.66;;;7.57;100.00
64192;BME280;50497;50.720;-2.084;2023-02-21T08:23:49;100202.66;;;7.63;100.00
64192;BME280;50497;50.720;-2.084;2023-02-21T08:26:42;100199.88;;;7.66;100.00
64192;BME280;50497;50.720;-2.084;2023-02-21T08:29:24;100183.59;;;7.72;100.00
64192;BME280;50497;50.720;-2.084;2023-02-21T08:31:57;100178.97;;;7.77;100.00
64192;BME280;50497;50.720;-2.084;2023-02-21T08:34:48;100176.44;;;7.74;100.00
64192;BME280;50497;50.720;-2.084;2023-02-21T08:37:26;100158.06;;;7.68;100.00
64192;BME280;50497;50.720;-2.084;2023-02-21T08:40:00;100161.72;;;7.65;100.00
64192;BME280;50497;50.720;-2.084;2023-02-21T08:42:26;100144.56;;;7.72;100.00
64192;BME280;50497;50.720;-2.084;2023-02-21T08:44:58;100131.25;;;7.72;100.00
64192;BME280;50497;50.720;-2.084;2023-02-21T08:47:40;100120.25;;;7.99;100.00
64192;BME280;50497;50.720;-2.084;2023-02-21T08:50:10;100105.56;;;7.90;100.00
64192;BME280;50497;50.720;-2.084;2023-02-21T08:52:44;100110.00;;;7.90;100.00
64192;BME280;50497;50.720;-2.084;2023-02-21T08:55:24;100102.16;;;7.87;100.00
64192;BME280;50497;50.720;-2.084;2023-02-21T08:58:08;100079.94;;;8.07;100.00
64192;BME280;50497;50.720;-2.084;2023-02-21T09:00:44;100065.22;;;7.98;100.00
64192;BME280;50497;50.720;-2.084;2023-02-21T09:03:34;100047.53;;;7.97;100.00
64192;BME280;50497;50.720;-2.084;2023-02-21T09:06:13;100041.81;;;8.05;100.00
64192;BME280;50497;50.720;-2.084;2023-02-21T09:09:08;100036.00;;;7.96;100.00
64192;BME280;50497;50.720;-2.084;2023-02-21T09:11:52;100023.78;;;8.29;100.00
64192;BME280;50497;50.720;-2.084;2023-02-21T09:17:46;100015.81;;;8.10;100.00
64192;BME280;50497;50.720;-2.084;2023-02-21T09:20:29;100013.50;;;8.21;100.00
64192;BME280;50497;50.720;-2.084;2023-02-21T09:23:10;100006.06;;;8.28;100.00
64192;BME280;50497;50.720;-2.084;2023-02-21T09:25:57;100007.25;;;8.40;100.00
64192;BME280;50497;50.720;-2.084;2023-02-21T09:28:34;99996.78;;;8.54;100.00
64192;BME280;50497;50.720;-2.084;2023-02-21T09:31:18;99996.63;;;8.57;100.00
64192;BME280;50497;50.720;-2.084;2023-02-21T09:34:06;100003.16;;;8.69;100.00
64192;BME280;50497;50.720;-2.084;2023-02-21T09:36:49;99995.72;;;9.09;100.00
64192;BME280;50497;50.720;-2.084;2023-02-21T09:39:27;99989.38;;;9.28;100.00
64192;BME280;50497;50.720;-2.084;2023-02-21T09:42:01;99997.97;;;9.50;100.00
64192;BME280;50497;50.720;-2.084;2023-02-21T09:44:31;100004.94;;;9.53;100.00
64192;BME280;50497;50.720;-2.084;2023-02-21T09:47:04;100013.34;;;9.94;100.00
64192;BME280;50497;50.720;-2.084;2023-02-21T09:49:42;100015.25;;;10.54;100.00
64192;BME280;50497;50.720;-2.084;2023-02-21T09:52:30;100044.41;;;11.04;100.00
64192;BME280;50497;50.720;-2.084;2023-02-21T09:55:13;100094.06;;;11.09;100.00
64192;BME280;50497;50.720;-2.084;2023-02-21T09:57:50;100155.78;;;10.28;100.00
64192;BME280;50497;50.720;-2.084;2023-02-21T10:00:26;100197.16;;;9.88;100.00
64192;BME280;50497;50.720;-2.084;2023-02-21T10:08:55;100204.97;;;9.57;100.00
64192;BME280;50497;50.720;-2.084;2023-02-21T10:17:46;100208.06;;;9.15;100.00
64192;BME280;50497;50.720;-2.084;2023-02-21T10:23:40;100203.56;;;9.33;100.00
64192;BME280;50497;50.720;-2.084;2023-02-21T10:26:36;100181.19;;;9.53;100.00
64192;BME280;50497;50.720;-2.084;2023-02-21T10:29:23;100180.41;;;9.68;100.00
64192;BME280;50497;50.720;-2.084;2023-02-21T10:32:00;100188.19;;;9.73;100.00
64192;BME280;50497;50.720;-2.084;2023-02-21T10:34:46;100188.41;;;9.68;100.00
64192;BME280;50497;50.720;-2.084;2023-02-21T10:37:50;100196.72;;;9.44;100.00
64192;BME280;50497;50.720;-2.084;2023-02-21T10:43:48;100183.78;;;9.72;100.00
64192;BME280;50497;50.720;-2.084;2023-02-21T10:46:43;100198.16;;;9.52;100.00
64192;BME280;50497;50.720;-2.084;2023-02-21T10:49:43;100200.25;;;9.62;100.00
64192;BME280;50497;50.720;-2.084;2023-02-21T10:52:27;100216.06;;;9.32;100.00
64192;BME280;50497;50.720;-2.084;2023-02-21T10:55:13;100202.31;;;9.75;100.00
64192;BME280;50497;50.720;-2.084;2023-02-21T10:58:20;100200.63;;;9.90;100.00
64192;BME280;50497;50.720;-2.084;2023-02-21T11:00:58;100215.91;;;9.53;100.00
64192;BME280;50497;50.720;-2.084;2023-02-21T11:03:57;100212.50;;;9.84;100.00
64192;BME280;50497;50.720;-2.084;2023-02-21T11:06:39;100224.38;;;9.78;100.00
64192;BME280;50497;50.720;-2.084;2023-02-21T11:12:26;100206.38;;;10.15;100.00
64192;BME280;50497;50.720;-2.084;2023-02-21T11:15:05;100209.81;;;10.17;100.00
64192;BME280;50497;50.720;-2.084;2023-02-21T11:17:42;100211.19;;;10.09;100.00
64192;BME280;50497;50.720;-2.084;2023-02-21T11:22:47;100213.66;;;9.96;100.00
64192;BME280;50497;50.720;-2.084;2023-02-21T11:25:26;100218.13;;;10.13;100.00
64192;BME280;50497;50.720;-2.084;2023-02-21T11:28:21;100206.47;;;10.14;100.00
64192;BME280;50497;50.720;-2.084;2023-02-21T11:33:35;100222.19;;;9.69;100.00
64192;BME280;50497;50.720;-2.084;2023-02-21T11:36:18;100208.66;;;9.72;100.00
64192;BME280;50497;50.720;-2.084;2023-02-21T11:39:03;100193.28;;;9.42;100.00
64192;BME280;50497;50.720;-2.084;2023-02-21T11:46:54;100193.69;;;9.52;100.00
64192;BME280;50497;50.720;-2.084;2023-02-21T11:52:15;100181.19;;;9.53;100.00
64192;BME280;50497;50.720;-2.084;2023-02-21T11:55:17;100177.44;;;9.57;100.00
64192;BME280;50497;50.720;-2.084;2023-02-21T11:58:21;100197.84;;;9.40;100.00
64192;BME280;50497;50.720;-2.084;2023-02-21T12:01:15;100190.63;;;9.60;100.00
64192;BME280;50497;50.720;-2.084;2023-02-21T12:03:58;100172.94;;;9.75;100.00
64192;BME280;50497;50.720;-2.084;2023-02-21T12:06:44;100184.28;;;10.12;100.00
64192;BME280;50497;50.720;-2.084;2023-02-21T12:12:31;100217.72;;;9.52;100.00
64192;BME280;50497;50.720;-2.084;2023-02-21T12:15:21;100219.03;;;9.09;100.00
64192;BME280;50497;50.720;-2.084;2023-02-21T12:20:59;100215.75;;;9.38;100.00
64192;BME280;50497;50.720;-2.084;2023-02-21T12:40:49;100186.56;;;10.20;100.00
64192;BME280;50497;50.720;-2.084;2023-02-21T12:46:24;100813.16;;;9.55;100.00
64192;BME280;50497;50.720;-2.084;2023-02-21T12:48:57;100773.81;;;9.59;100.00
64192;BME280;50497;50.720;-2.084;2023-02-21T12:51:47;100751.59;;;9.58;100.00
64192;BME280;50497;50.720;-2.084;2023-02-21T12:54:40;100734.03;;;9.73;100.00
64192;BME280;50497;50.720;-2.084;2023-02-21T12:57:25;100700.59;;;10.23;100.00
64192;BME280;50497;50.720;-2.084;2023-02-21T13:00:34;100706.25;;;11.45;100.00
64192;BME280;50497;50.720;-2.084;2023-02-21T13:03:39;100885.06;;;12.31;100.00
64192;BME280;50497;50.720;-2.084;2023-02-21T13:07:00;101125.34;;;12.36;100.00
64192;BME280;50497;50.720;-2.084;2023-02-21T13:10:11;101173.16;;;12.84;100.00
64192;BME280;50497;50.720;-2.084;2023-02-21T13:13:06;101209.38;;;11.78;100.00
64192;BME280;50497;50.720;-2.084;2023-02-21T13:15:43;101149.53;;;11.18;100.00
64192;BME280;50497;50.720;-2.084;2023-02-21T13:18:19;101140.81;;;10.49;100.00
64192;BME280;50497;50.720;-2.084;2023-02-21T13:21:11;101065.91;;;10.26;100.00
64192;BME280;50497;50.720;-2.084;2023-02-21T13:24:00;101017.81;;;10.04;100.00
64192;BME280;50497;50.720;-2.084;2023-02-21T13:29:31;100923.38;;;9.81;100.00
64192;BME280;50497;50.720;-2.084;2023-02-21T13:32:12;100895.19;;;9.74;100.00
64192;BME280;50497;50.720;-2.084;2023-02-21T13:35:01;100876.78;;;9.88;100.00
64192;BME280;50497;50.720;-2.084;2023-02-21T13:37:48;100880.44;;;9.65;100.00
64192;BME280;50497;50.720;-2.084;2023-02-21T13:40:53;100846.84;;;9.80;100.00
64192;BME280;50497;50.720;-2.084;2023-02-21T13:43:36;100834.81;;;9.70;100.00
64192;BME280;50497;50.720;-2.084;2023-02-21T13:57:49;100751.97;;;9.49;100.00
64192;BME280;50497;50.720;-2.084;2023-02-21T14:11:10;100738.94;;;9.83;100.00
64192;BME280;50497;50.720;-2.084;2023-02-21T14:16:19;100763.81;;;9.85;100.00
64192;BME280;50497;50.720;-2.084;2023-02-21T14:19:07;100779.09;;;9.81;100.00
64192;BME280;50497;50.720;-2.084;2023-02-21T14:21:47;100760.34;;;10.43;100.00
64192;BME280;50497;50.720;-2.084;2023-02-21T14:24:22;100781.81;;;10.21;100.00
64192;BME280;50497;50.720;-2.084;2023-02-21T14:26:55;100791.28;;;10.48;100.00
64192;BME280;50497;50.720;-2.084;2023-02-21T14:34:51;100841.06;;;10.11;100.00
64192;BME280;50497;50.720;-2.084;2023-02-21T14:37:39;100824.88;;;9.94;100.00
64192;BME280;50497;50.720;-2.084;2023-02-21T14:40:28;100824.06;;;9.71;100.00
64192;BME280;50497;50.720;-2.084;2023-02-21T14:46:18;100789.66;;;9.21;100.00
64192;BME280;50497;50.720;-2.084;2023-02-21T14:49:18;100762.19;;;9.39;100.00
64192;BME280;50497;50.720;-2.084;2023-02-21T14:52:01;100752.59;;;8.91;100.00
64192;BME280;50497;50.720;-2.084;2023-02-21T15:00:25;100705.84;;;9.25;100.00
64192;BME280;50497;50.720;-2.084;2023-02-21T15:03:22;100693.28;;;9.06;100.00
64192;BME280;50497;50.720;-2.084;2023-02-21T15:06:06;100698.16;;;9.17;100.00
64192;BME280;50497;50.720;-2.084;2023-02-21T15:08:45;100671.44;;;9.17;100.00
64192;BME280;50497;50.720;-2.084;2023-02-21T15:11:31;100681.00;;;8.80;100.00
64192;BME280;50497;50.720;-2.084;2023-02-21T15:14:25;100655.88;;;8.86;100.00
64192;BME280;50497;50.720;-2.084;2023-02-21T15:17:23;100649.78;;;8.82;100.00
64192;BME280;50497;50.720;-2.084;2023-02-21T15:20:18;100626.38;;;8.68;100.00
64192;BME280;50497;50.720;-2.084;2023-02-21T15:22:56;100599.47;;;8.73;100.00
64192;BME280;50497;50.720;-2.084;2023-02-21T15:25:46;100507.47;;;8.83;100.00
64192;BME280;50497;50.720;-2.084;2023-02-21T15:31:11;100477.78;;;8.91;100.00
64192;BME280;50497;50.720;-2.084;2023-02-21T15:33:51;100493.31;;;8.81;100.00
64192;BME280;50497;50.720;-2.084;2023-02-21T15:36:29;100483.00;;;8.74;100.00
64192;BME280;50497;50.720;-2.084;2023-02-21T15:39:36;100477.13;;;8.65;100.00
64192;BME280;50497;50.720;-2.084;2023-02-21T15:42:16;100480.47;;;8.50;100.00
64192;BME280;50497;50.720;-2.084;2023-02-21T15:44:58;100461.13;;;8.65;100.00
64192;BME280;50497;50.720;-2.084;2023-02-21T15:47:35;100462.47;;;8.55;100.00
64192;BME280;50497;50.720;-2.084;2023-02-21T15:52:54;100425.47;;;8.47;100.00
64192;BME280;50497;50.720;-2.084;2023-02-21T16:00:47;100394.97;;;8.32;100.00
64192;BME280;50497;50.720;-2.084;2023-02-21T16:03:33;100395.53;;;8.20;100.00
64192;BME280;50497;50.720;-2.084;2023-02-21T16:06:23;100377.00;;;8.17;100.00
64192;BME280;50497;50.720;-2.084;2023-02-21T16:15:00;100347.59;;;8.39;100.00
64192;BME280;50497;50.720;-2.084;2023-02-21T16:17:35;100353.88;;;8.18;100.00
64192;BME280;50497;50.720;-2.084;2023-02-21T16:20:34;100351.09;;;8.00;100.00
64192;BME280;50497;50.720;-2.084;2023-02-21T16:28:44;100330.81;;;7.96;100.00
64192;BME280;50497;50.720;-2.084;2023-02-21T16:31:28;100308.59;;;7.97;100.00
64192;BME280;50497;50.720;-2.084;2023-02-21T16:34:32;100302.50;;;7.93;100.00
64192;BME280;50497;50.720;-2.084;2023-02-21T16:37:09;100289.00;;;7.98;100.00